sensor_id;sensor_type;location;lat;lon;timestamp;P1;durP1;ratioP1;P2;durP2;ratioP2
1074;SDS011;526;51.392;12.448;2022-08-19T00:01:22;6.43;;;4.30;;
1074;SDS011;526;51.392;12.448;2022-08-19T00:03:49;12.47;;;4.63;;
1074;SDS011;526;51.392;12.448;2022-08-19T00:06:15;15.33;;;7.50;;
1074;SDS011;526;51.392;12.448;2022-08-19T00:08:41;10.07;;;4.60;;
1074;SDS011;526;51.392;12.448;2022-08-19T00:11:08;8.90;;;4.83;;
1074;SDS011;526;51.392;12.448;2022-08-19T00:13:34;11.73;;;6.20;;
1074;SDS011;526;51.392;12.448;2022-08-19T00:16:00;9.57;;;5.87;;
1074;SDS011;526;51.392;12.448;2022-08-19T00:18:26;10.50;;;6.17;;
1074;SDS011;526;51.392;12.448;2022-08-19T00:20:52;11.17;;;6.40;;
1074;SDS011;526;51.392;12.448;2022-08-19T00:23:17;16.30;;;7.00;;
1074;SDS011;526;51.392;12.448;2022-08-19T00:25:43;17.30;;;6.23;;
1074;SDS011;526;51.392;12.448;2022-08-19T00:28:09;8.00;;;5.40;;
1074;SDS011;526;51.392;12.448;2022-08-19T00:30:35;4.80;;;3.73;;
1074;SDS011;526;51.392;12.448;2022-08-19T00:33:00;9.17;;;4.93;;
1074;SDS011;526;51.392;12.448;2022-08-19T00:35:26;7.80;;;5.50;;
1074;SDS011;526;51.392;12.448;2022-08-19T00:37:52;7.97;;;4.80;;
1074;SDS011;526;51.392;12.448;2022-08-19T00:40:19;9.37;;;5.90;;
1074;SDS011;526;51.392;12.448;2022-08-19T00:42:45;11.77;;;6.27;;
1074;SDS011;526;51.392;12.448;2022-08-19T00:45:13;9.10;;;5.70;;
1074;SDS011;526;51.392;12.448;2022-08-19T00:47:42;16.77;;;7.20;;
1074;SDS011;526;51.392;12.448;2022-08-19T00:50:09;8.30;;;5.63;;
1074;SDS011;526;51.392;12.448;2022-08-19T00:52:38;6.67;;;4.87;;
1074;SDS011;526;51.392;12.448;2022-08-19T00:55:09;8.87;;;5.90;;
1074;SDS011;526;51.392;12.448;2022-08-19T00:57:38;10.03;;;6.10;;
1074;SDS011;526;51.392;12.448;2022-08-19T01:00:11;11.20;;;5.83;;
1074;SDS011;526;51.392;12.448;2022-08-19T01:02:40;10.03;;;5.67;;
1074;SDS011;526;51.392;12.448;2022-08-19T01:05:08;7.83;;;5.63;;
1074;SDS011;526;51.392;12.448;2022-08-19T01:07:37;10.90;;;5.60;;
1074;SDS011;526;51.392;12.448;2022-08-19T01:10:06;8.60;;;5.13;;
1074;SDS011;526;51.392;12.448;2022-08-19T01:14:59;16.67;;;6.90;;
1074;SDS011;526;51.392;12.448;2022-08-19T01:17:25;15.53;;;9.07;;
1074;SDS011;526;51.392;12.448;2022-08-19T01:19:52;12.70;;;6.70;;
1074;SDS011;526;51.392;12.448;2022-08-19T01:24:49;14.47;;;7.40;;
1074;SDS011;526;51.392;12.448;2022-08-19T01:27:16;16.87;;;7.27;;
1074;SDS011;526;51.392;12.448;2022-08-19T01:29:42;11.37;;;4.83;;
1074;SDS011;526;51.392;12.448;2022-08-19T01:32:11;8.20;;;5.93;;
1074;SDS011;526;51.392;12.448;2022-08-19T01:34:39;18.07;;;7.37;;
1074;SDS011;526;51.392;12.448;2022-08-19T01:37:06;8.63;;;5.10;;
1074;SDS011;526;51.392;12.448;2022-08-19T01:39:36;12.27;;;7.20;;
1074;SDS011;526;51.392;12.448;2022-08-19T01:42:03;11.30;;;5.83;;
1074;SDS011;526;51.392;12.448;2022-08-19T01:44:30;10.97;;;6.20;;
1074;SDS011;526;51.392;12.448;2022-08-19T01:46:55;9.47;;;5.10;;
1074;SDS011;526;51.392;12.448;2022-08-19T01:49:23;9.73;;;6.60;;
1074;SDS011;526;51.392;12.448;2022-08-19T01:51:50;8.80;;;5.27;;
1074;SDS011;526;51.392;12.448;2022-08-19T01:54:17;10.17;;;4.83;;
1074;SDS011;526;51.392;12.448;2022-08-19T01:56:44;16.40;;;7.43;;
1074;SDS011;526;51.392;12.448;2022-08-19T01:59:14;9.20;;;5.40;;
1074;SDS011;526;51.392;12.448;2022-08-19T02:01:43;8.53;;;6.10;;
1074;SDS011;526;51.392;12.448;2022-08-19T02:04:09;12.70;;;6.40;;
1074;SDS011;526;51.392;12.448;2022-08-19T02:06:35;13.57;;;5.30;;
1074;SDS011;526;51.392;12.448;2022-08-19T02:09:02;11.60;;;6.47;;
1074;SDS011;526;51.392;12.448;2022-08-19T02:11:31;16.57;;;7.50;;
1074;SDS011;526;51.392;12.448;2022-08-19T02:13:58;16.43;;;6.07;;
1074;SDS011;526;51.392;12.448;2022-08-19T02:16:27;12.90;;;5.40;;
1074;SDS011;526;51.392;12.448;2022-08-19T02:18:53;12.40;;;6.53;;
1074;SDS011;526;51.392;12.448;2022-08-19T02:21:20;12.30;;;7.77;;
1074;SDS011;526;51.392;12.448;2022-08-19T02:23:47;26.97;;;5.97;;
1074;SDS011;526;51.392;12.448;2022-08-19T02:26:13;8.60;;;5.00;;
1074;SDS011;526;51.392;12.448;2022-08-19T02:28:40;11.17;;;4.30;;
1074;SDS011;526;51.392;12.448;2022-08-19T02:31:18;9.43;;;5.70;;
1074;SDS011;526;51.392;12.448;2022-08-19T02:33:45;7.63;;;4.20;;
1074;SDS011;526;51.392;12.448;2022-08-19T02:36:11;10.93;;;4.63;;
1074;SDS011;526;51.392;12.448;2022-08-19T02:38:38;10.97;;;5.70;;
1074;SDS011;526;51.392;12.448;2022-08-19T02:41:12;14.67;;;5.70;;
1074;SDS011;526;51.392;12.448;2022-08-19T02:43:46;12.23;;;4.77;;
1074;SDS011;526;51.392;12.448;2022-08-19T02:48:45;15.43;;;5.87;;
1074;SDS011;526;51.392;12.448;2022-08-19T02:51:21;14.63;;;5.80;;
1074;SDS011;526;51.392;12.448;2022-08-19T02:53:48;9.50;;;5.53;;
1074;SDS011;526;51.392;12.448;2022-08-19T02:56:14;10.93;;;5.37;;
1074;SDS011;526;51.392;12.448;2022-08-19T02:58:40;8.10;;;5.00;;
1074;SDS011;526;51.392;12.448;2022-08-19T03:01:06;7.50;;;5.23;;
1074;SDS011;526;51.392;12.448;2022-08-19T03:03:32;10.67;;;6.70;;
1074;SDS011;526;51.392;12.448;2022-08-19T03:06:08;7.47;;;5.37;;
1074;SDS011;526;51.392;12.448;2022-08-19T03:08:37;13.07;;;5.20;;
1074;SDS011;526;51.392;12.448;2022-08-19T03:11:04;7.83;;;4.73;;
1074;SDS011;526;51.392;12.448;2022-08-19T03:13:29;5.90;;;5.00;;
1074;SDS011;526;51.392;12.448;2022-08-19T03:15:55;9.47;;;6.03;;
1074;SDS011;526;51.392;12.448;2022-08-19T03:18:21;9.90;;;5.27;;
1074;SDS011;526;51.392;12.448;2022-08-19T03:20:47;4.93;;;4.17;;
1074;SDS011;526;51.392;12.448;2022-08-19T03:23:17;6.20;;;3.73;;
1074;SDS011;526;51.392;12.448;2022-08-19T03:25:44;9.10;;;4.97;;
1074;SDS011;526;51.392;12.448;2022-08-19T03:28:12;8.33;;;4.17;;
1074;SDS011;526;51.392;12.448;2022-08-19T03:30:40;9.17;;;5.30;;
1074;SDS011;526;51.392;12.448;2022-08-19T03:33:07;8.47;;;5.30;;
1074;SDS011;526;51.392;12.448;2022-08-19T03:35:34;6.03;;;4.10;;
1074;SDS011;526;51.392;12.448;2022-08-19T03:38:02;10.13;;;5.40;;
1074;SDS011;526;51.392;12.448;2022-08-19T03:40:29;3.93;;;3.77;;
1074;SDS011;526;51.392;12.448;2022-08-19T03:42:57;8.53;;;4.90;;
1074;SDS011;526;51.392;12.448;2022-08-19T03:45:23;8.87;;;4.70;;
1074;SDS011;526;51.392;12.448;2022-08-19T03:47:49;7.33;;;4.10;;
1074;SDS011;526;51.392;12.448;2022-08-19T03:50:14;4.77;;;3.20;;
1074;SDS011;526;51.392;12.448;2022-08-19T03:52:40;7.57;;;4.33;;
1074;SDS011;526;51.392;12.448;2022-08-19T03:55:06;10.23;;;5.10;;
1074;SDS011;526;51.392;12.448;2022-08-19T03:57:32;7.90;;;4.40;;
1074;SDS011;526;51.392;12.448;2022-08-19T03:59:59;5.77;;;3.10;;
1074;SDS011;526;51.392;12.448;2022-08-19T04:02:29;11.70;;;5.60;;
1074;SDS011;526;51.392;12.448;2022-08-19T04:04:56;7.03;;;4.37;;
1074;SDS011;526;51.392;12.448;2022-08-19T04:07:22;4.13;;;3.73;;
1074;SDS011;526;51.392;12.448;2022-08-19T04:09:48;9.00;;;4.43;;
1074;SDS011;526;51.392;12.448;2022-08-19T04:12:14;10.93;;;6.77;;
1074;SDS011;526;51.392;12.448;2022-08-19T04:14:39;9.13;;;4.83;;
1074;SDS011;526;51.392;12.448;2022-08-19T04:17:05;8.27;;;5.57;;
1074;SDS011;526;51.392;12.448;2022-08-19T04:19:31;8.93;;;5.90;;
1074;SDS011;526;51.392;12.448;2022-08-19T04:21:58;3.50;;;2.47;;
1074;SDS011;526;51.392;12.448;2022-08-19T04:24:23;7.13;;;4.70;;
1074;SDS011;526;51.392;12.448;2022-08-19T04:26:49;11.00;;;5.37;;
1074;SDS011;526;51.392;12.448;2022-08-19T04:29:25;11.43;;;4.97;;
1074;SDS011;526;51.392;12.448;2022-08-19T04:31:52;12.33;;;4.53;;
1074;SDS011;526;51.392;12.448;2022-08-19T04:34:20;7.63;;;4.93;;
1074;SDS011;526;51.392;12.448;2022-08-19T04:36:48;6.33;;;4.20;;
1074;SDS011;526;51.392;12.448;2022-08-19T04:39:16;6.73;;;4.93;;
1074;SDS011;526;51.392;12.448;2022-08-19T04:41:44;11.53;;;9.43;;
1074;SDS011;526;51.392;12.448;2022-08-19T04:44:32;14.60;;;6.47;;
1074;SDS011;526;51.392;12.448;2022-08-19T04:46:59;7.50;;;5.70;;
1074;SDS011;526;51.392;12.448;2022-08-19T04:49:26;10.97;;;5.70;;
1074;SDS011;526;51.392;12.448;2022-08-19T04:51:52;5.63;;;4.10;;
1074;SDS011;526;51.392;12.448;2022-08-19T04:54:19;8.87;;;4.83;;
1074;SDS011;526;51.392;12.448;2022-08-19T04:56:48;10.80;;;6.00;;
1074;SDS011;526;51.392;12.448;2022-08-19T04:59:15;14.47;;;8.17;;
1074;SDS011;526;51.392;12.448;2022-08-19T05:01:42;11.10;;;6.60;;
1074;SDS011;526;51.392;12.448;2022-08-19T05:04:08;8.33;;;4.77;;
1074;SDS011;526;51.392;12.448;2022-08-19T05:06:34;14.50;;;7.87;;
1074;SDS011;526;51.392;12.448;2022-08-19T05:09:02;17.70;;;6.60;;
1074;SDS011;526;51.392;12.448;2022-08-19T05:11:30;13.33;;;6.93;;
1074;SDS011;526;51.392;12.448;2022-08-19T05:13:58;12.47;;;6.03;;
1074;SDS011;526;51.392;12.448;2022-08-19T05:16:24;15.60;;;6.77;;
1074;SDS011;526;51.392;12.448;2022-08-19T05:18:51;15.80;;;6.80;;
1074;SDS011;526;51.392;12.448;2022-08-19T05:21:36;15.03;;;6.77;;
1074;SDS011;526;51.392;12.448;2022-08-19T05:24:21;12.33;;;7.73;;
1074;SDS011;526;51.392;12.448;2022-08-19T05:26:48;18.33;;;8.90;;
1074;SDS011;526;51.392;12.448;2022-08-19T05:29:16;12.50;;;6.83;;
1074;SDS011;526;51.392;12.448;2022-08-19T05:31:46;17.23;;;6.70;;
1074;SDS011;526;51.392;12.448;2022-08-19T05:34:14;20.23;;;10.07;;
1074;SDS011;526;51.392;12.448;2022-08-19T05:36:42;11.97;;;6.27;;
1074;SDS011;526;51.392;12.448;2022-08-19T05:39:11;17.60;;;9.73;;
1074;SDS011;526;51.392;12.448;2022-08-19T05:41:45;13.00;;;6.53;;
1074;SDS011;526;51.392;12.448;2022-08-19T05:44:13;14.37;;;8.80;;
1074;SDS011;526;51.392;12.448;2022-08-19T05:46:39;10.67;;;8.00;;
1074;SDS011;526;51.392;12.448;2022-08-19T05:49:07;13.43;;;7.00;;
1074;SDS011;526;51.392;12.448;2022-08-19T05:51:33;19.50;;;10.20;;
1074;SDS011;526;51.392;12.448;2022-08-19T05:54:01;18.07;;;8.90;;
1074;SDS011;526;51.392;12.448;2022-08-19T05:56:27;14.33;;;8.10;;
1074;SDS011;526;51.392;12.448;2022-08-19T05:58:55;13.67;;;6.67;;
1074;SDS011;526;51.392;12.448;2022-08-19T06:01:21;12.30;;;6.43;;
1074;SDS011;526;51.392;12.448;2022-08-19T06:03:47;10.17;;;6.67;;
1074;SDS011;526;51.392;12.448;2022-08-19T06:06:13;17.13;;;8.87;;
1074;SDS011;526;51.392;12.448;2022-08-19T06:08:40;15.37;;;9.87;;
1074;SDS011;526;51.392;12.448;2022-08-19T06:11:50;13.37;;;8.27;;
1074;SDS011;526;51.392;12.448;2022-08-19T06:13:57;15.30;;;10.93;;
1074;SDS011;526;51.392;12.448;2022-08-19T06:16:27;16.33;;;8.40;;
1074;SDS011;526;51.392;12.448;2022-08-19T06:18:53;25.43;;;10.97;;
1074;SDS011;526;51.392;12.448;2022-08-19T06:21:22;15.23;;;7.93;;
1074;SDS011;526;51.392;12.448;2022-08-19T06:23:49;20.93;;;10.63;;
1074;SDS011;526;51.392;12.448;2022-08-19T06:26:16;14.03;;;8.60;;
1074;SDS011;526;51.392;12.448;2022-08-19T06:28:43;16.43;;;8.80;;
1074;SDS011;526;51.392;12.448;2022-08-19T06:31:12;20.17;;;10.23;;
1074;SDS011;526;51.392;12.448;2022-08-19T06:33:42;22.43;;;9.40;;
1074;SDS011;526;51.392;12.448;2022-08-19T06:36:15;23.90;;;11.97;;
1074;SDS011;526;51.392;12.448;2022-08-19T06:38:59;17.03;;;8.97;;
1074;SDS011;526;51.392;12.448;2022-08-19T06:41:46;12.50;;;6.47;;
1074;SDS011;526;51.392;12.448;2022-08-19T06:44:14;18.30;;;9.33;;
1074;SDS011;526;51.392;12.448;2022-08-19T06:46:40;12.47;;;8.57;;
1074;SDS011;526;51.392;12.448;2022-08-19T06:49:07;16.40;;;8.90;;
1074;SDS011;526;51.392;12.448;2022-08-19T06:51:39;23.47;;;10.57;;
1074;SDS011;526;51.392;12.448;2022-08-19T06:54:09;18.87;;;9.93;;
1074;SDS011;526;51.392;12.448;2022-08-19T06:56:35;20.40;;;7.23;;
1074;SDS011;526;51.392;12.448;2022-08-19T06:59:06;15.50;;;8.53;;
1074;SDS011;526;51.392;12.448;2022-08-19T07:01:36;24.67;;;11.30;;
1074;SDS011;526;51.392;12.448;2022-08-19T07:04:07;13.83;;;8.13;;
1074;SDS011;526;51.392;12.448;2022-08-19T07:06:34;20.23;;;10.80;;
1074;SDS011;526;51.392;12.448;2022-08-19T07:09:01;21.67;;;8.47;;
1074;SDS011;526;51.392;12.448;2022-08-19T07:11:31;17.70;;;8.50;;
1074;SDS011;526;51.392;12.448;2022-08-19T07:13:57;18.93;;;9.10;;
1074;SDS011;526;51.392;12.448;2022-08-19T07:16:23;21.40;;;8.50;;
1074;SDS011;526;51.392;12.448;2022-08-19T07:18:49;25.00;;;11.13;;
1074;SDS011;526;51.392;12.448;2022-08-19T07:21:20;21.50;;;9.60;;
1074;SDS011;526;51.392;12.448;2022-08-19T07:23:49;15.97;;;8.50;;
1074;SDS011;526;51.392;12.448;2022-08-19T07:26:16;13.00;;;7.13;;
1074;SDS011;526;51.392;12.448;2022-08-19T07:28:45;16.83;;;8.63;;
1074;SDS011;526;51.392;12.448;2022-08-19T07:31:13;15.30;;;10.00;;
1074;SDS011;526;51.392;12.448;2022-08-19T07:33:43;14.97;;;7.30;;
1074;SDS011;526;51.392;12.448;2022-08-19T07:36:10;17.97;;;10.43;;
1074;SDS011;526;51.392;12.448;2022-08-19T07:38:37;14.17;;;8.70;;
1074;SDS011;526;51.392;12.448;2022-08-19T07:41:05;20.80;;;10.90;;
1074;SDS011;526;51.392;12.448;2022-08-19T07:43:31;17.93;;;7.90;;
1074;SDS011;526;51.392;12.448;2022-08-19T07:45:57;17.27;;;7.10;;
1074;SDS011;526;51.392;12.448;2022-08-19T07:48:23;15.83;;;8.60;;
1074;SDS011;526;51.392;12.448;2022-08-19T07:50:52;12.00;;;7.23;;
1074;SDS011;526;51.392;12.448;2022-08-19T07:53:19;14.00;;;7.57;;
1074;SDS011;526;51.392;12.448;2022-08-19T07:55:45;21.43;;;8.57;;
1074;SDS011;526;51.392;12.448;2022-08-19T07:58:12;12.67;;;6.90;;
1074;SDS011;526;51.392;12.448;2022-08-19T08:00:40;12.97;;;6.20;;
1074;SDS011;526;51.392;12.448;2022-08-19T08:03:07;20.63;;;12.00;;
1074;SDS011;526;51.392;12.448;2022-08-19T08:05:33;21.50;;;11.27;;
1074;SDS011;526;51.392;12.448;2022-08-19T08:08:19;20.20;;;9.10;;
1074;SDS011;526;51.392;12.448;2022-08-19T08:11:04;16.77;;;7.70;;
1074;SDS011;526;51.392;12.448;2022-08-19T08:13:29;22.53;;;9.67;;
1074;SDS011;526;51.392;12.448;2022-08-19T08:15:56;13.50;;;7.20;;
1074;SDS011;526;51.392;12.448;2022-08-19T08:18:25;14.23;;;7.67;;
1074;SDS011;526;51.392;12.448;2022-08-19T08:20:51;19.53;;;10.60;;
1074;SDS011;526;51.392;12.448;2022-08-19T08:23:16;17.83;;;10.00;;
1074;SDS011;526;51.392;12.448;2022-08-19T08:25:49;13.50;;;6.93;;
1074;SDS011;526;51.392;12.448;2022-08-19T08:28:20;15.50;;;9.00;;
1074;SDS011;526;51.392;12.448;2022-08-19T08:30:47;22.50;;;10.80;;
1074;SDS011;526;51.392;12.448;2022-08-19T08:33:14;22.67;;;9.30;;
1074;SDS011;526;51.392;12.448;2022-08-19T08:35:44;16.80;;;8.87;;
1074;SDS011;526;51.392;12.448;2022-08-19T08:38:11;11.33;;;7.10;;
1074;SDS011;526;51.392;12.448;2022-08-19T08:40:39;9.13;;;5.90;;
1074;SDS011;526;51.392;12.448;2022-08-19T08:45:38;26.10;;;7.93;;
1074;SDS011;526;51.392;12.448;2022-08-19T08:48:16;16.23;;;9.10;;
1074;SDS011;526;51.392;12.448;2022-08-19T08:50:45;28.00;;;10.57;;
1074;SDS011;526;51.392;12.448;2022-08-19T08:53:17;19.23;;;7.70;;
1074;SDS011;526;51.392;12.448;2022-08-19T08:55:44;20.37;;;8.63;;
1074;SDS011;526;51.392;12.448;2022-08-19T08:58:16;26.70;;;9.07;;
1074;SDS011;526;51.392;12.448;2022-08-19T09:00:51;18.90;;;8.57;;
1074;SDS011;526;51.392;12.448;2022-08-19T09:03:24;15.47;;;9.27;;
1074;SDS011;526;51.392;12.448;2022-08-19T09:09:50;23.00;;;11.20;;
1074;SDS011;526;51.392;12.448;2022-08-19T09:17:11;12.90;;;9.03;;
1074;SDS011;526;51.392;12.448;2022-08-19T09:19:51;16.07;;;7.80;;
1074;SDS011;526;51.392;12.448;2022-08-19T09:22:22;24.87;;;8.57;;
1074;SDS011;526;51.392;12.448;2022-08-19T09:24:51;18.43;;;10.50;;
1074;SDS011;526;51.392;12.448;2022-08-19T09:27:17;15.13;;;7.10;;
1074;SDS011;526;51.392;12.448;2022-08-19T09:29:45;17.27;;;9.90;;
1074;SDS011;526;51.392;12.448;2022-08-19T09:32:12;11.50;;;6.40;;
1074;SDS011;526;51.392;12.448;2022-08-19T09:34:38;11.10;;;7.20;;
1074;SDS011;526;51.392;12.448;2022-08-19T09:37:03;12.87;;;6.47;;
1074;SDS011;526;51.392;12.448;2022-08-19T09:39:30;13.63;;;6.37;;
1074;SDS011;526;51.392;12.448;2022-08-19T09:41:55;13.63;;;6.00;;
1074;SDS011;526;51.392;12.448;2022-08-19T09:44:21;19.10;;;9.10;;
1074;SDS011;526;51.392;12.448;2022-08-19T09:46:47;20.43;;;9.70;;
1074;SDS011;526;51.392;12.448;2022-08-19T09:49:12;15.83;;;8.33;;
1074;SDS011;526;51.392;12.448;2022-08-19T09:51:38;26.80;;;9.07;;
1074;SDS011;526;51.392;12.448;2022-08-19T09:54:03;15.83;;;10.10;;
1074;SDS011;526;51.392;12.448;2022-08-19T09:56:30;21.20;;;10.10;;
1074;SDS011;526;51.392;12.448;2022-08-19T09:59:00;18.93;;;8.60;;
1074;SDS011;526;51.392;12.448;2022-08-19T10:01:28;9.30;;;5.70;;
1074;SDS011;526;51.392;12.448;2022-08-19T10:03:55;15.53;;;8.23;;
1074;SDS011;526;51.392;12.448;2022-08-19T10:06:23;13.57;;;6.97;;
1074;SDS011;526;51.392;12.448;2022-08-19T10:08:51;15.77;;;8.80;;
1074;SDS011;526;51.392;12.448;2022-08-19T10:11:17;16.13;;;10.53;;
1074;SDS011;526;51.392;12.448;2022-08-19T10:13:44;21.13;;;9.23;;
1074;SDS011;526;51.392;12.448;2022-08-19T10:16:11;19.97;;;9.23;;
1074;SDS011;526;51.392;12.448;2022-08-19T10:18:40;15.87;;;6.60;;
1074;SDS011;526;51.392;12.448;2022-08-19T10:21:10;14.83;;;8.70;;
1074;SDS011;526;51.392;12.448;2022-08-19T10:23:36;12.87;;;7.33;;
1074;SDS011;526;51.392;12.448;2022-08-19T10:26:04;16.87;;;7.60;;
1074;SDS011;526;51.392;12.448;2022-08-19T10:28:31;22.87;;;8.43;;
1074;SDS011;526;51.392;12.448;2022-08-19T10:30:58;15.80;;;8.87;;
1074;SDS011;526;51.392;12.448;2022-08-19T10:33:27;19.33;;;8.67;;
1074;SDS011;526;51.392;12.448;2022-08-19T10:38:56;16.60;;;8.20;;
1074;SDS011;526;51.392;12.448;2022-08-19T10:41:25;16.23;;;8.10;;
1074;SDS011;526;51.392;12.448;2022-08-19T10:43:54;13.50;;;7.80;;
1074;SDS011;526;51.392;12.448;2022-08-19T10:46:23;9.50;;;5.00;;
1074;SDS011;526;51.392;12.448;2022-08-19T10:48:50;12.63;;;6.77;;
1074;SDS011;526;51.392;12.448;2022-08-19T10:51:17;13.77;;;7.47;;
1074;SDS011;526;51.392;12.448;2022-08-19T10:54:15;8.37;;;6.00;;
1074;SDS011;526;51.392;12.448;2022-08-19T10:56:42;12.80;;;6.37;;
1074;SDS011;526;51.392;12.448;2022-08-19T10:59:21;12.93;;;5.10;;
1074;SDS011;526;51.392;12.448;2022-08-19T11:01:52;7.13;;;4.30;;
1074;SDS011;526;51.392;12.448;2022-08-19T11:04:19;13.73;;;9.57;;
1074;SDS011;526;51.392;12.448;2022-08-19T11:06:46;13.30;;;5.77;;
1074;SDS011;526;51.392;12.448;2022-08-19T11:09:22;9.50;;;6.10;;
1074;SDS011;526;51.392;12.448;2022-08-19T11:11:55;13.50;;;7.13;;
1074;SDS011;526;51.392;12.448;2022-08-19T11:14:21;9.97;;;5.50;;
1074;SDS011;526;51.392;12.448;2022-08-19T11:16:49;12.80;;;7.13;;
1074;SDS011;526;51.392;12.448;2022-08-19T11:19:18;13.93;;;6.83;;
1074;SDS011;526;51.392;12.448;2022-08-19T11:21:46;11.83;;;6.50;;
1074;SDS011;526;51.392;12.448;2022-08-19T11:24:16;8.83;;;5.53;;
1074;SDS011;526;51.392;12.448;2022-08-19T11:26:45;9.20;;;4.97;;
1074;SDS011;526;51.392;12.448;2022-08-19T11:29:11;10.73;;;5.90;;
1074;SDS011;526;51.392;12.448;2022-08-19T11:31:39;10.37;;;4.50;;
1074;SDS011;526;51.392;12.448;2022-08-19T11:34:07;10.13;;;4.97;;
1074;SDS011;526;51.392;12.448;2022-08-19T11:36:36;5.87;;;4.30;;
1074;SDS011;526;51.392;12.448;2022-08-19T11:39:04;8.67;;;5.30;;
1074;SDS011;526;51.392;12.448;2022-08-19T11:41:31;6.40;;;3.33;;
1074;SDS011;526;51.392;12.448;2022-08-19T11:43:56;9.67;;;5.30;;
1074;SDS011;526;51.392;12.448;2022-08-19T11:46:23;10.03;;;4.63;;
1074;SDS011;526;51.392;12.448;2022-08-19T11:48:50;8.57;;;4.77;;
1074;SDS011;526;51.392;12.448;2022-08-19T11:51:18;8.20;;;4.90;;
1074;SDS011;526;51.392;12.448;2022-08-19T11:53:46;5.10;;;4.70;;
1074;SDS011;526;51.392;12.448;2022-08-19T11:56:12;8.47;;;3.70;;
1074;SDS011;526;51.392;12.448;2022-08-19T11:58:38;5.70;;;2.97;;
1074;SDS011;526;51.392;12.448;2022-08-19T12:01:07;11.83;;;3.70;;
1074;SDS011;526;51.392;12.448;2022-08-19T12:03:33;8.63;;;5.87;;
1074;SDS011;526;51.392;12.448;2022-08-19T12:06:07;6.20;;;3.80;;
1074;SDS011;526;51.392;12.448;2022-08-19T12:08:35;6.63;;;3.77;;
1074;SDS011;526;51.392;12.448;2022-08-19T12:11:00;11.13;;;5.10;;
1074;SDS011;526;51.392;12.448;2022-08-19T12:13:27;8.50;;;4.40;;
1074;SDS011;526;51.392;12.448;2022-08-19T12:15:53;7.67;;;5.20;;
1074;SDS011;526;51.392;12.448;2022-08-19T12:18:19;9.87;;;5.30;;
1074;SDS011;526;51.392;12.448;2022-08-19T12:20:45;4.67;;;3.30;;
1074;SDS011;526;51.392;12.448;2022-08-19T12:23:11;15.27;;;4.63;;
1074;SDS011;526;51.392;12.448;2022-08-19T12:25:37;6.40;;;3.50;;
1074;SDS011;526;51.392;12.448;2022-08-19T12:28:13;6.23;;;4.33;;
1074;SDS011;526;51.392;12.448;2022-08-19T12:30:38;13.33;;;5.90;;
1074;SDS011;526;51.392;12.448;2022-08-19T12:33:04;10.93;;;4.87;;
1074;SDS011;526;51.392;12.448;2022-08-19T12:35:30;5.70;;;3.27;;
1074;SDS011;526;51.392;12.448;2022-08-19T12:37:55;23.87;;;5.33;;
1074;SDS011;526;51.392;12.448;2022-08-19T12:40:21;11.20;;;7.80;;
1074;SDS011;526;51.392;12.448;2022-08-19T12:42:46;6.37;;;5.33;;
1074;SDS011;526;51.392;12.448;2022-08-19T12:45:14;6.20;;;3.63;;
1074;SDS011;526;51.392;12.448;2022-08-19T12:47:39;11.37;;;5.43;;
1074;SDS011;526;51.392;12.448;2022-08-19T12:50:05;5.73;;;4.10;;
1074;SDS011;526;51.392;12.448;2022-08-19T12:52:33;12.23;;;4.70;;
1074;SDS011;526;51.392;12.448;2022-08-19T12:55:02;10.43;;;4.90;;
1074;SDS011;526;51.392;12.448;2022-08-19T12:57:29;6.60;;;4.90;;
1074;SDS011;526;51.392;12.448;2022-08-19T12:59:58;10.10;;;4.63;;
1074;SDS011;526;51.392;12.448;2022-08-19T13:02:25;14.27;;;7.67;;
1074;SDS011;526;51.392;12.448;2022-08-19T13:04:51;6.50;;;4.90;;
1074;SDS011;526;51.392;12.448;2022-08-19T13:07:16;7.53;;;4.43;;
1074;SDS011;526;51.392;12.448;2022-08-19T13:09:42;15.87;;;7.77;;
1074;SDS011;526;51.392;12.448;2022-08-19T13:12:08;8.33;;;5.47;;
1074;SDS011;526;51.392;12.448;2022-08-19T13:14:37;5.83;;;3.70;;
1074;SDS011;526;51.392;12.448;2022-08-19T13:17:05;10.83;;;4.07;;
1074;SDS011;526;51.392;12.448;2022-08-19T13:19:31;11.27;;;5.13;;
1074;SDS011;526;51.392;12.448;2022-08-19T13:21:57;6.77;;;4.80;;
1074;SDS011;526;51.392;12.448;2022-08-19T13:24:23;9.10;;;4.67;;
1074;SDS011;526;51.392;12.448;2022-08-19T13:26:49;25.87;;;4.53;;
1074;SDS011;526;51.392;12.448;2022-08-19T13:29:15;15.10;;;6.30;;
1074;SDS011;526;51.392;12.448;2022-08-19T13:31:59;10.00;;;6.40;;
1074;SDS011;526;51.392;12.448;2022-08-19T13:34:43;7.20;;;4.10;;
1074;SDS011;526;51.392;12.448;2022-08-19T13:37:11;10.73;;;6.20;;
1074;SDS011;526;51.392;12.448;2022-08-19T13:39:37;8.43;;;4.33;;
1074;SDS011;526;51.392;12.448;2022-08-19T13:42:02;11.67;;;6.97;;
1074;SDS011;526;51.392;12.448;2022-08-19T13:44:29;9.40;;;5.50;;
1074;SDS011;526;51.392;12.448;2022-08-19T13:47:00;7.73;;;3.70;;
1074;SDS011;526;51.392;12.448;2022-08-19T13:49:30;11.13;;;6.47;;
1074;SDS011;526;51.392;12.448;2022-08-19T13:51:56;8.33;;;5.00;;
1074;SDS011;526;51.392;12.448;2022-08-19T13:54:22;8.13;;;3.33;;
1074;SDS011;526;51.392;12.448;2022-08-19T13:56:47;13.30;;;6.60;;
1074;SDS011;526;51.392;12.448;2022-08-19T13:59:13;16.23;;;5.60;;
1074;SDS011;526;51.392;12.448;2022-08-19T14:01:39;8.17;;;4.53;;
1074;SDS011;526;51.392;12.448;2022-08-19T14:04:05;10.60;;;4.80;;
1074;SDS011;526;51.392;12.448;2022-08-19T14:06:32;10.13;;;4.43;;
1074;SDS011;526;51.392;12.448;2022-08-19T14:08:57;12.73;;;4.97;;
1074;SDS011;526;51.392;12.448;2022-08-19T14:11:23;4.03;;;2.97;;
1074;SDS011;526;51.392;12.448;2022-08-19T14:13:49;10.00;;;5.50;;
1074;SDS011;526;51.392;12.448;2022-08-19T14:16:15;8.70;;;5.10;;
1074;SDS011;526;51.392;12.448;2022-08-19T14:18:41;3.83;;;3.27;;
1074;SDS011;526;51.392;12.448;2022-08-19T14:21:07;5.73;;;4.53;;
1074;SDS011;526;51.392;12.448;2022-08-19T14:23:38;9.07;;;5.43;;
1074;SDS011;526;51.392;12.448;2022-08-19T14:26:14;8.10;;;4.07;;
1074;SDS011;526;51.392;12.448;2022-08-19T14:28:41;11.93;;;5.23;;
1074;SDS011;526;51.392;12.448;2022-08-19T14:31:09;9.07;;;5.43;;
1074;SDS011;526;51.392;12.448;2022-08-19T14:33:35;14.03;;;8.20;;
1074;SDS011;526;51.392;12.448;2022-08-19T14:36:01;10.80;;;6.63;;
1074;SDS011;526;51.392;12.448;2022-08-19T14:38:28;10.60;;;5.30;;
1074;SDS011;526;51.392;12.448;2022-08-19T14:41:04;17.20;;;5.97;;
1074;SDS011;526;51.392;12.448;2022-08-19T14:43:41;10.17;;;4.73;;
1074;SDS011;526;51.392;12.448;2022-08-19T14:46:10;11.30;;;6.47;;
1074;SDS011;526;51.392;12.448;2022-08-19T14:48:37;16.97;;;6.77;;
1074;SDS011;526;51.392;12.448;2022-08-19T14:51:03;12.10;;;6.17;;
1074;SDS011;526;51.392;12.448;2022-08-19T14:53:30;6.27;;;4.50;;
1074;SDS011;526;51.392;12.448;2022-08-19T14:55:58;6.10;;;3.57;;
1074;SDS011;526;51.392;12.448;2022-08-19T14:58:24;8.23;;;4.80;;
1074;SDS011;526;51.392;12.448;2022-08-19T15:00:50;11.67;;;5.10;;
1074;SDS011;526;51.392;12.448;2022-08-19T15:03:15;8.23;;;5.47;;
1074;SDS011;526;51.392;12.448;2022-08-19T15:05:41;13.43;;;6.60;;
1074;SDS011;526;51.392;12.448;2022-08-19T15:08:06;7.70;;;4.93;;
1074;SDS011;526;51.392;12.448;2022-08-19T15:10:32;6.67;;;3.90;;
1074;SDS011;526;51.392;12.448;2022-08-19T15:12:58;11.80;;;5.33;;
1074;SDS011;526;51.392;12.448;2022-08-19T15:15:24;13.17;;;4.70;;
1074;SDS011;526;51.392;12.448;2022-08-19T15:17:50;6.50;;;3.90;;
1074;SDS011;526;51.392;12.448;2022-08-19T15:20:17;7.10;;;4.40;;
1074;SDS011;526;51.392;12.448;2022-08-19T15:22:45;11.83;;;4.10;;
1074;SDS011;526;51.392;12.448;2022-08-19T15:25:12;5.90;;;3.93;;
1074;SDS011;526;51.392;12.448;2022-08-19T15:27:40;7.43;;;4.10;;
1074;SDS011;526;51.392;12.448;2022-08-19T15:30:07;9.07;;;6.07;;
1074;SDS011;526;51.392;12.448;2022-08-19T15:32:33;5.27;;;3.93;;